createdAt,value
2023-01-03T00:00:04.179Z,2.25
2023-01-03T00:05:08.509Z,2.67
2023-01-03T00:10:11.075Z,2.58
2023-01-03T00:15:16.266Z,2.67
2023-01-03T00:20:18.161Z,2.70
2023-01-03T00:25:19.765Z,2.95
2023-01-03T00:30:21.960Z,3.53
2023-01-03T00:35:23.600Z,1.90
2023-01-03T00:40:25.342Z,1.85
2023-01-03T00:45:29.885Z,2.13
2023-01-03T00:50:37.663Z,1.70
2023-01-03T00:55:39.371Z,1.65
2023-01-03T01:00:41.155Z,1.75
2023-01-03T01:05:42.861Z,3.20
2023-01-03T01:11:01.798Z,1.95
2023-01-03T01:16:14.320Z,2.20
2023-01-03T01:21:18.695Z,3.00
2023-01-03T01:26:25.137Z,2.60
2023-01-03T01:31:27.254Z,2.58
2023-01-03T01:36:33.033Z,2.30
2023-01-03T01:41:55.596Z,2.00
2023-01-03T01:46:57.315Z,1.40
2023-01-03T01:51:58.984Z,1.60
2023-01-03T01:57:00.685Z,1.30
2023-01-03T02:02:02.658Z,1.10
2023-01-03T02:07:06.491Z,1.63
2023-01-03T02:12:45.620Z,1.55
2023-01-03T02:18:13.250Z,1.73
2023-01-03T02:23:21.389Z,1.88
2023-01-03T02:28:38.310Z,1.70
2023-01-03T02:33:57.642Z,2.20
2023-01-03T02:39:12.889Z,2.53
2023-01-03T02:44:33.674Z,2.10
2023-01-03T02:49:42.137Z,2.95
2023-01-03T02:54:55.805Z,2.63
2023-01-03T03:00:10.043Z,3.13
2023-01-03T03:05:17.984Z,3.55
2023-01-03T03:10:40.394Z,2.97
2023-01-03T03:16:03.043Z,3.08
2023-01-03T03:21:27.787Z,3.67
2023-01-03T03:26:40.072Z,4.22
2023-01-03T03:31:49.416Z,3.50
2023-01-03T03:37:05.006Z,3.92
2023-01-03T03:42:45.784Z,3.78
2023-01-03T03:48:03.582Z,3.97
2023-01-03T03:53:08.213Z,4.10
2023-01-03T03:58:32.586Z,4.63
2023-01-03T04:03:36.288Z,3.97
2023-01-03T04:08:38.618Z,4.53
2023-01-03T04:13:40.588Z,4.95
2023-01-03T04:18:42.204Z,5.20
2023-01-03T04:23:43.820Z,5.13
2023-01-03T04:28:45.491Z,5.00
2023-01-03T04:33:47.319Z,4.63
2023-01-03T04:38:48.998Z,5.45
2023-01-03T04:44:02.631Z,5.82
2023-01-03T04:49:06.629Z,5.78
2023-01-03T04:54:08.379Z,5.70
2023-01-03T04:59:10.067Z,6.53
2023-01-03T05:04:11.742Z,8.32
2023-01-03T05:09:13.438Z,8.95
2023-01-03T05:14:15.198Z,9.68
2023-01-03T05:19:16.972Z,10.75
2023-01-03T05:24:59.483Z,13.68
2023-01-03T05:30:01.442Z,11.35
2023-01-03T05:35:03.140Z,12.40
2023-01-03T05:40:05.326Z,19.55
2023-01-03T05:45:08.298Z,12.93
2023-01-03T05:50:10.067Z,13.27
2023-01-03T05:55:11.646Z,12.02
2023-01-03T06:00:16.727Z,12.60
2023-01-03T06:05:18.492Z,13.25
2023-01-03T06:10:20.179Z,13.90
2023-01-03T06:15:21.964Z,13.07
2023-01-03T06:20:25.373Z,13.60
2023-01-03T06:25:27.287Z,14.02
2023-01-03T06:30:29.041Z,13.38
2023-01-03T06:35:30.791Z,13.52
2023-01-03T06:40:39.308Z,14.55
2023-01-03T06:46:03.483Z,14.52
2023-01-03T06:51:26.408Z,14.00
2023-01-03T06:56:28.853Z,13.85
2023-01-03T07:01:30.617Z,13.35
2023-01-03T07:06:32.379Z,12.80
2023-01-03T07:11:34.215Z,13.95
2023-01-03T07:16:43.930Z,12.73
2023-01-03T07:21:46.960Z,18.02
2023-01-03T07:26:48.607Z,14.73
2023-01-03T07:31:50.338Z,12.68
2023-01-03T07:36:52.120Z,13.40
2023-01-03T07:42:12.156Z,12.65
2023-01-03T07:47:14.447Z,12.15
2023-01-03T07:52:16.165Z,15.30
2023-01-03T07:57:20.633Z,12.23
2023-01-03T08:02:22.553Z,11.18
2023-01-03T08:07:24.371Z,11.70
2023-01-03T08:12:44.750Z,11.38
2023-01-03T08:22:48.390Z,12.05
2023-01-03T08:27:50.608Z,10.68
2023-01-03T08:32:55.112Z,10.23
2023-01-03T08:37:59.768Z,9.60
2023-01-03T08:43:04.440Z,9.43
2023-01-03T08:48:08.164Z,10.30
2023-01-03T08:53:09.883Z,9.75
2023-01-03T08:58:11.629Z,9.80
2023-01-03T09:03:14.055Z,10.27
2023-01-03T09:08:18.582Z,10.55
2023-01-03T09:13:20.286Z,10.90
2023-01-03T09:18:21.897Z,11.30
2023-01-03T09:23:23.730Z,12.50
2023-01-03T09:28:26.143Z,12.63
2023-01-03T09:33:28.288Z,13.35
2023-01-03T09:38:30.116Z,14.05
2023-01-03T09:43:42.265Z,14.40
2023-01-03T09:48:44.520Z,15.02
2023-01-03T09:54:04.824Z,15.00
2023-01-03T09:59:37.178Z,15.90
2023-01-03T10:05:08.789Z,15.88
2023-01-03T10:10:23.885Z,16.90
2023-01-03T10:15:42.694Z,16.70
2023-01-03T10:20:56.917Z,18.15
2023-01-03T10:25:59.210Z,18.95
2023-01-03T10:31:28.820Z,19.10
2023-01-03T10:36:30.496Z,19.92
2023-01-03T10:41:47.930Z,19.05
2023-01-03T10:46:53.796Z,18.10
2023-01-03T10:52:14.605Z,19.52
2023-01-03T10:57:46.483Z,19.20
2023-01-03T11:02:50.809Z,19.10
2023-01-03T11:07:58.809Z,17.95
2023-01-03T11:13:00.587Z,19.63
2023-01-03T11:18:05.599Z,19.35
2023-01-03T11:23:22.437Z,18.30
2023-01-03T11:28:58.508Z,18.42
2023-01-03T11:35:03.084Z,17.35
2023-01-03T11:40:16.774Z,17.13
2023-01-03T11:45:48.833Z,16.45
2023-01-03T11:51:03.326Z,16.70
2023-01-03T11:56:21.697Z,16.38
2023-01-03T12:01:39.773Z,15.40
2023-01-03T12:06:44.485Z,16.40
2023-01-03T12:12:07.733Z,14.27
2023-01-03T12:17:21.276Z,14.57
2023-01-03T12:22:40.864Z,14.60
2023-01-03T12:27:56.673Z,12.40
2023-01-03T12:33:17.597Z,11.82
2023-01-03T12:38:27.758Z,12.65
2023-01-03T12:43:48.589Z,12.48
2023-01-03T12:49:10.592Z,11.95
2023-01-03T12:54:34.083Z,10.73
2023-01-03T13:00:05.192Z,10.60
2023-01-03T13:05:20.307Z,10.40
2023-01-03T13:10:32.478Z,8.65
2023-01-03T13:15:37.370Z,8.85
2023-01-03T13:20:43.555Z,8.88
2023-01-03T13:26:06.139Z,8.25
2023-01-03T13:31:20.954Z,7.95
2023-01-03T13:36:24.315Z,8.25
2023-01-03T13:41:35.263Z,7.55
2023-01-03T13:46:41.710Z,7.55
2023-01-03T13:51:43.462Z,6.78
2023-01-03T13:56:45.281Z,6.97
2023-01-03T14:01:56.791Z,7.75
2023-01-03T14:07:23.812Z,6.60
2023-01-03T14:12:56.701Z,6.43
2023-01-03T14:18:07.252Z,5.80
2023-01-03T14:23:48.969Z,5.72
2023-01-03T14:28:34.819Z,6.55
2023-01-03T14:34:01.018Z,6.47
2023-01-03T14:39:02.809Z,6.35
2023-01-03T14:44:16.171Z,5.55
2023-01-03T14:49:21.441Z,6.15
2023-01-03T14:54:24.444Z,6.05
2023-01-03T14:59:27.258Z,6.43
2023-01-03T15:04:29.012Z,4.93
2023-01-03T15:09:35.592Z,5.72
2023-01-03T15:14:39.286Z,5.20
2023-01-03T15:19:49.966Z,5.70
2023-01-03T15:25:04.177Z,5.07
2023-01-03T15:30:25.487Z,4.60
2023-01-03T15:35:37.616Z,5.60
2023-01-03T15:40:41.500Z,5.85
2023-01-03T15:45:44.308Z,5.53
2023-01-03T15:50:52.077Z,6.07
2023-01-03T15:56:23.122Z,6.20
2023-01-03T16:01:27.246Z,6.00
2023-01-03T16:06:30.024Z,5.97
2023-01-03T16:11:34.647Z,5.60
2023-01-03T16:16:43.461Z,5.28
2023-01-03T16:22:16.043Z,4.80
2023-01-03T16:27:28.335Z,4.88
2023-01-03T16:32:36.046Z,5.03
2023-01-03T16:37:43.566Z,4.75
2023-01-03T16:42:49.730Z,6.55
2023-01-03T16:47:52.556Z,4.88
2023-01-03T16:52:58.690Z,4.20
2023-01-03T16:58:01.858Z,4.88
2023-01-03T17:03:07.454Z,5.70
2023-01-03T17:08:26.470Z,4.80
2023-01-03T17:14:00.513Z,5.32
2023-01-03T17:19:05.171Z,5.70
2023-01-03T17:24:17.997Z,4.70
2023-01-03T17:29:31.337Z,6.28
2023-01-03T17:34:36.492Z,5.07
2023-01-03T17:39:39.086Z,4.78
2023-01-03T17:45:09.859Z,4.53
2023-01-03T17:50:12.224Z,5.57
2023-01-03T17:55:29.112Z,4.50
2023-01-03T18:00:31.990Z,4.60
2023-01-03T18:05:37.898Z,4.43
2023-01-03T18:10:46.479Z,4.47
2023-01-03T18:15:50.080Z,4.40
2023-01-03T18:20:52.747Z,4.78
2023-01-03T18:25:56.780Z,4.63
2023-01-03T18:30:58.610Z,5.55
2023-01-03T18:36:00.945Z,4.28
2023-01-03T18:41:05.900Z,4.72
2023-01-03T18:46:14.600Z,4.57
2023-01-03T18:51:18.897Z,5.15
2023-01-03T18:56:29.515Z,4.70
2023-01-03T19:01:31.745Z,4.25
2023-01-03T19:06:34.205Z,5.35
2023-01-03T19:11:38.050Z,3.85
2023-01-03T19:16:40.899Z,5.13
2023-01-03T19:21:47.145Z,4.38
2023-01-03T19:26:54.113Z,4.60
2023-01-03T19:31:57.682Z,4.18
2023-01-03T19:36:59.352Z,4.53
2023-01-03T19:42:19.467Z,4.63
2023-01-03T19:47:21.829Z,4.38
2023-01-03T19:52:24.765Z,4.30
2023-01-03T19:57:32.267Z,4.05
2023-01-03T20:02:40.347Z,5.00
2023-01-03T20:07:50.939Z,4.18
2023-01-03T20:13:04.272Z,4.18
2023-01-03T20:18:34.103Z,4.28
2023-01-03T20:23:46.213Z,5.13
2023-01-03T20:28:48.267Z,4.07
2023-01-03T20:33:53.357Z,5.00
2023-01-03T20:38:56.149Z,5.40
2023-01-03T20:44:00.611Z,4.28
2023-01-03T20:49:03.824Z,3.95
2023-01-03T20:54:05.661Z,3.90
2023-01-03T20:59:07.500Z,5.55
2023-01-03T21:04:09.563Z,3.50
2023-01-03T21:09:11.845Z,3.15
2023-01-03T21:14:14.772Z,3.17
2023-01-03T21:19:22.035Z,3.03
2023-01-03T21:24:24.355Z,3.33
2023-01-03T21:29:25.980Z,2.97
2023-01-03T21:34:27.757Z,2.70
2023-01-03T21:39:30.931Z,3.45
2023-01-03T21:44:32.563Z,3.25
2023-01-03T21:49:34.170Z,3.70
2023-01-03T21:54:35.894Z,2.95
2023-01-03T21:59:37.971Z,3.80
2023-01-03T22:04:39.638Z,3.53
2023-01-03T22:09:59.948Z,2.58
2023-01-03T22:15:01.628Z,2.58
2023-01-03T22:20:06.344Z,2.47
2023-01-03T22:25:10.747Z,2.85
2023-01-03T22:30:16.684Z,3.10
2023-01-03T22:35:18.788Z,2.58
2023-01-03T22:40:20.535Z,3.55
2023-01-03T22:45:22.171Z,3.25
2023-01-03T22:50:23.897Z,2.95
2023-01-03T22:55:31.786Z,3.50
2023-01-03T23:00:33.814Z,3.20
2023-01-03T23:05:35.971Z,2.38
2023-01-03T23:10:37.565Z,2.90
2023-01-03T23:15:39.238Z,3.00
2023-01-03T23:20:48.675Z,2.83
2023-01-03T23:25:50.289Z,2.95
2023-01-03T23:30:51.995Z,2.25
2023-01-03T23:35:53.778Z,3.30
2023-01-03T23:40:55.368Z,2.60
2023-01-03T23:45:58.014Z,2.15
2023-01-03T23:51:07.605Z,2.25
2023-01-03T23:56:12.637Z,2.28
